Time;durP1;ratioP1;P1;durP2;ratioP2;P2;SDS_P1;SDS_P2;PMS_P1;PMS_P2;Temp;Humidity;BMP_temperature;BMP_pressure;BME280_temperature;BME280_humidity;BME280_pressure;Samples;Min_cycle;Max_cycle;Signal;HPM_P1;HPM_P2
2021/12/21 00:02:11;;;;;;;26.53;17.97;;;;;;;3.85;49.34;98805.72;8266036;28;20249;-77
2021/12/21 00:06:14;;;;;;;25.73;14.60;;;;;;;3.67;49.82;98807.47;8274134;28;20396;-77
2021/12/21 00:10:18;;;;;;;23.70;13.77;;;;;;;3.65;50.31;98798.94;8282362;28;20426;-77
2021/12/21 00:14:31;;;;;;;16.60;11.33;;;;;;;3.64;49.90;98804.09;8282267;28;20237;-77
2021/12/21 00:18:39;;;;;;;17.07;10.87;;;;;;;3.77;49.16;98794.63;8282309;28;20230;-77
2021/12/21 00:27:08;;;;;;;21.33;11.83;;;;;;;3.61;49.54;98789.56;8288153;28;20427;-77
2021/12/21 00:31:13;;;;;;;18.03;10.33;;;;;;;3.67;49.56;98788.69;8288847;28;20245;-77
2021/12/21 00:35:15;;;;;;;17.53;10.13;;;;;;;3.63;49.65;98789.56;8280782;28;20229;-77
2021/12/21 00:39:18;;;;;;;19.40;10.90;;;;;;;3.67;49.33;98788.69;8288426;28;20237;-77
2021/12/21 00:43:21;;;;;;;18.33;10.87;;;;;;;3.63;49.58;98792.13;8288382;28;20236;-77
2021/12/21 00:47:26;;;;;;;13.20;9.43;;;;;;;3.70;49.14;98786.97;8288281;28;20233;-77
2021/12/21 00:51:29;;;;;;;13.37;9.00;;;;;;;3.61;48.87;98786.16;8288887;28;20295;-77
2021/12/21 00:55:32;;;;;;;18.80;9.23;;;;;;;3.52;49.01;98790.47;8288481;28;20230;-77
2021/12/21 00:59:36;;;;;;;14.53;9.53;;;;;;;3.46;49.20;98780.22;8287975;28;20546;-77
2021/12/21 01:03:47;;;;;;;13.70;8.70;;;;;;;3.51;48.90;98782.78;8266515;28;20233;-77
2021/12/21 01:07:54;;;;;;;14.67;8.40;;;;;;;3.45;49.25;98783.66;8255849;28;20234;-77
2021/12/21 01:12:02;;;;;;;11.60;7.87;;;;;;;3.35;49.30;98792.22;8255439;28;20234;-77
2021/12/21 01:16:17;;;;;;;14.90;8.57;;;;;;;3.28;49.77;98785.41;8255309;28;20257;-77
2021/12/21 01:20:30;;;;;;;13.10;8.17;;;;;;;3.44;48.67;98788.78;8248120;28;20234;-77
2021/12/21 01:24:54;;;;;;;13.47;7.60;;;;;;;3.37;49.34;98789.63;8255214;28;20230;-77
2021/12/21 01:29:05;;;;;;;14.00;7.83;;;;;;;3.44;48.75;98783.66;8255136;28;20422;-77
2021/12/21 01:33:23;;;;;;;11.37;7.77;;;;;;;3.33;49.08;98786.22;8254317;28;20241;-77
2021/12/21 01:37:39;;;;;;;12.97;7.97;;;;;;;3.23;48.86;98782.00;8247956;28;20458;-77
2021/12/21 01:41:50;;;;;;;11.63;7.70;;;;;;;3.30;49.18;98788.81;8254091;28;20235;-77
2021/12/21 01:50:14;;;;;;;12.97;7.83;;;;;;;3.31;48.57;98776.00;8255726;28;20206;-77
2021/12/21 01:54:18;;;;;;;16.50;8.17;;;;;;;3.25;48.90;98773.44;8253934;28;20234;-77
2021/12/21 01:58:21;;;;;;;15.37;8.33;;;;;;;2.89;49.31;98769.22;8254126;28;20423;-77
2021/12/21 02:02:24;;;;;;;11.27;7.80;;;;;;;2.98;49.22;98760.72;8253782;28;20238;-77
2021/12/21 02:06:29;;;;;;;11.07;8.03;;;;;;;3.04;49.17;98765.81;8253749;28;20245;-77
2021/12/21 02:10:34;;;;;;;16.13;9.00;;;;;;;3.16;48.67;98758.13;8253804;28;20252;-77
2021/12/21 02:14:37;;;;;;;12.40;8.70;;;;;;;3.09;49.00;98751.31;8253663;28;20237;-77
2021/12/21 02:18:49;;;;;;;13.17;8.87;;;;;;;2.98;48.41;98750.47;8253467;28;20548;-77
2021/12/21 02:23:00;;;;;;;12.40;8.77;;;;;;;2.90;48.76;98753.03;8253619;28;20246;-77
2021/12/21 02:27:17;;;;;;;13.43;8.47;;;;;;;3.01;48.64;98747.88;8253651;28;20248;-77
2021/12/21 02:31:20;;;;;;;14.23;8.53;;;;;;;2.81;48.82;98745.38;8253047;28;20241;-77
2021/12/21 02:35:23;;;;;;;14.83;8.90;;;;;;;2.66;49.04;98734.28;8253014;28;20269;-77
2021/12/21 02:39:28;;;;;;;11.73;8.43;;;;;;;2.79;49.01;98740.25;8252996;28;20424;-77
2021/12/21 02:43:32;;;;;;;11.77;8.70;;;;;;;2.72;49.11;98738.53;8252924;28;20277;-77
2021/12/21 02:47:35;;;;;;;13.17;8.70;;;;;;;2.91;48.97;98737.69;8252118;28;20524;-77
2021/12/21 02:51:39;;;;;;;13.60;9.17;;;;;;;2.96;48.67;98731.72;8252774;28;20555;-77
2021/12/21 02:55:43;;;;;;;12.80;8.60;;;;;;;2.96;48.42;98735.13;8252956;28;20230;-77
2021/12/21 02:59:46;;;;;;;18.83;9.23;;;;;;;2.98;47.82;98735.13;8252372;28;20426;-77
2021/12/21 03:03:49;;;;;;;12.57;8.67;;;;;;;2.96;47.84;98732.56;8252054;28;20234;-77
2021/12/21 03:08:07;;;;;;;14.47;8.70;;;;;;;2.89;48.55;98725.72;8251701;28;20246;-77
2021/12/21 03:12:31;;;;;;;14.43;9.50;;;;;;;2.98;48.20;98725.72;8251598;28;20238;-77
2021/12/21 03:16:35;;;;;;;15.63;10.53;;;;;;;2.78;48.20;98730.00;8251255;28;20225;-77
2021/12/21 03:20:38;;;;;;;15.57;10.10;;;;;;;2.82;48.29;98724.91;8250808;28;20245;-77
2021/12/21 03:24:43;;;;;;;15.57;10.33;;;;;;;2.83;48.51;98721.47;8251345;28;20236;-77
2021/12/21 03:28:48;;;;;;;14.40;10.03;;;;;;;2.79;48.67;98721.50;8251447;28;20267;-77
2021/12/21 03:32:51;;;;;;;18.13;10.37;;;;;;;2.70;48.57;98722.34;8251324;28;20253;-77
2021/12/21 03:36:55;;;;;;;16.40;10.23;;;;;;;2.66;48.00;98711.25;8251064;28;20246;-77
2021/12/21 03:41:04;;;;;;;14.00;9.50;;;;;;;2.66;48.20;98718.09;8250781;28;20270;-77
2021/12/21 03:45:10;;;;;;;15.40;9.63;;;;;;;2.67;47.88;98720.66;8251108;28;20312;-77
2021/12/21 03:49:48;;;;;;;16.83;10.43;;;;;;;2.67;48.03;98712.13;8250518;28;20230;-77
2021/12/21 03:53:41;;;;;;;14.90;9.90;;;;;;;2.67;48.19;98709.56;8250321;28;20241;-77
2021/12/21 03:57:44;;;;;;;15.43;9.60;;;;;;;2.59;48.18;98711.25;8250178;28;20234;-77
2021/12/21 04:01:49;;;;;;;14.83;9.60;;;;;;;2.63;47.98;98710.44;8250310;28;20429;-77
2021/12/21 04:05:52;;;;;;;15.43;10.37;;;;;;;2.68;47.73;98711.25;8250352;28;20577;-77
2021/12/21 04:09:55;;;;;;;14.60;9.30;;;;;;;2.61;47.38;98714.66;8250407;28;20245;-77
2021/12/21 04:13:58;;;;;;;15.93;9.27;;;;;;;2.40;48.36;98715.53;8250297;28;20246;-77
2021/12/21 04:18:02;;;;;;;15.40;9.13;;;;;;;2.31;48.61;98712.13;8250474;28;20234;-77
2021/12/21 04:22:06;;;;;;;16.13;8.83;;;;;;;2.34;48.92;98706.16;8250194;28;20242;-77
2021/12/21 04:26:09;;;;;;;11.50;8.43;;;;;;;2.35;48.20;98713.81;8249797;28;20234;-77
2021/12/21 04:30:12;;;;;;;14.30;8.67;;;;;;;2.27;47.86;98717.25;8249389;28;20237;-77
2021/12/21 04:34:17;;;;;;;12.67;8.87;;;;;;;2.23;48.05;98712.94;8249840;28;20245;-77
2021/12/21 04:38:22;;;;;;;15.37;8.50;;;;;;;2.37;47.76;98702.75;8249816;28;20234;-77
2021/12/21 04:42:25;;;;;;;12.33;8.83;;;;;;;2.39;48.17;98698.50;8249158;28;20345;-77
2021/12/21 04:46:28;;;;;;;12.23;7.80;;;;;;;2.19;48.33;98709.56;8249793;28;20429;-77
2021/12/21 04:50:32;;;;;;;12.40;8.30;;;;;;;2.32;47.87;98711.28;8249906;28;20242;-77
2021/12/21 04:54:36;;;;;;;28.77;20.70;;;;;;;2.40;48.30;98707.84;8249354;28;20233;-77
2021/12/21 04:58:39;;;;;;;14.43;9.80;;;;;;;2.13;47.86;98707.84;8249368;28;20237;-77
2021/12/21 05:02:42;;;;;;;16.50;10.07;;;;;;;2.26;47.58;98711.25;8249112;28;20242;-77
2021/12/21 05:06:47;;;;;;;17.13;9.17;;;;;;;2.35;47.50;98708.72;8248982;28;20333;-77
2021/12/21 05:10:52;;;;;;;14.33;8.23;;;;;;;2.26;47.71;98702.75;8250995;28;20237;-77
2021/12/21 05:14:56;;;;;;;13.30;8.60;;;;;;;2.13;47.96;98701.88;8255207;28;20249;-77
2021/12/21 05:18:59;;;;;;;14.93;8.87;;;;;;;2.04;48.37;98707.84;8255064;28;20246;-77
2021/12/21 05:23:04;;;;;;;13.30;8.67;;;;;;;2.12;48.94;98708.69;8255022;28;20250;-77
2021/12/21 05:27:08;;;;;;;14.27;8.97;;;;;;;2.06;48.85;98708.69;8254881;28;20234;-77
2021/12/21 05:31:11;;;;;;;14.23;8.67;;;;;;;2.08;48.53;98712.09;8254849;28;20245;-77
2021/12/21 05:35:13;;;;;;;16.03;9.93;;;;;;;2.05;48.92;98709.53;8246650;28;20226;-77
2021/12/21 05:39:21;;;;;;;14.10;8.93;;;;;;;2.02;48.46;98712.09;8254512;28;20245;-77
2021/12/21 05:43:24;;;;;;;14.13;8.30;;;;;;;2.24;48.03;98710.41;8253770;28;20245;-77
2021/12/21 05:47:27;;;;;;;15.57;9.00;;;;;;;2.13;47.81;98714.66;8254338;28;20238;-77
2021/12/21 05:51:31;;;;;;;13.87;8.47;;;;;;;2.07;48.07;98710.38;8254108;28;20238;-77
2021/12/21 05:55:35;;;;;;;16.23;9.43;;;;;;;2.02;48.08;98709.53;8254156;28;20229;-77
2021/12/21 05:59:38;;;;;;;17.97;9.73;;;;;;;1.86;48.81;98716.28;8254177;28;20238;-77
2021/12/21 06:03:41;;;;;;;15.17;9.87;;;;;;;1.91;47.72;98706.94;8253321;28;20238;-77
2021/12/21 06:07:45;;;;;;;14.70;9.40;;;;;;;1.93;48.40;98712.91;8252877;28;20230;-77
2021/12/21 06:12:01;;;;;;;15.73;9.47;;;;;;;1.84;48.68;98718.00;8253393;28;20579;-77
2021/12/21 06:16:25;;;;;;;15.47;9.53;;;;;;;1.83;48.41;98707.75;8253350;28;20237;-76
2021/12/21 06:29:15;;;;;;;16.37;8.97;;;;;;;1.78;48.48;98717.97;8234393;28;20222;-76
2021/12/21 06:33:18;;;;;;;13.90;8.23;;;;;;;1.89;48.35;98712.91;8250263;28;20238;-76
2021/12/21 06:37:21;;;;;;;13.30;8.70;;;;;;;2.07;47.56;98714.63;8252290;28;20233;-78
2021/12/21 06:41:24;;;;;;;15.13;8.97;;;;;;;2.02;47.64;98713.78;8252825;28;20249;-77
2021/12/21 06:45:46;;;;;;;15.07;8.53;;;;;;;1.98;47.14;98712.06;8252458;28;20260;-77
2021/12/21 06:54:09;;;;;;;16.70;8.77;;;;;;;1.94;47.16;98711.19;8252140;28;20424;-78
2021/12/21 06:58:12;;;;;;;14.73;8.77;;;;;;;1.93;46.89;98720.56;8252145;28;20230;-77
2021/12/21 07:02:17;;;;;;;15.13;10.33;;;;;;;2.02;47.16;98719.75;8251836;28;20238;-77
2021/12/21 07:06:22;;;;;;;27.40;20.13;;;;;;;2.05;47.67;98713.78;8251620;28;20245;-77
2021/12/21 07:10:28;;;;;;;28.13;18.03;;;;;;;1.85;48.53;98717.16;8252071;28;20293;-77
2021/12/21 07:18:54;;;;;;;16.53;11.83;;;;;;;1.98;47.92;98719.72;8251688;28;20234;-77
2021/12/21 07:22:57;;;;;;;13.73;9.33;;;;;;;1.87;47.69;98724.84;8251199;28;20548;-77
2021/12/21 07:27:00;;;;;;;13.90;8.67;;;;;;;1.98;47.57;98719.72;8251639;28;20238;-77
2021/12/21 07:31:03;;;;;;;16.07;8.77;;;;;;;1.97;47.48;98725.69;8251738;28;20541;-77
2021/12/21 07:35:08;;;;;;;11.00;8.07;;;;;;;2.01;46.86;98728.25;8250760;28;20260;-77
2021/12/21 07:39:13;;;;;;;10.77;7.97;;;;;;;1.88;48.10;98734.19;8242494;28;20233;-77
2021/12/21 07:43:17;;;;;;;12.17;8.07;;;;;;;1.80;48.06;98739.28;8250788;28;20428;-77
2021/12/21 07:47:20;;;;;;;34.10;23.20;;;;;;;1.99;47.82;98735.06;8250703;28;20541;-77
2021/12/21 07:51:25;;;;;;;70.37;45.40;;;;;;;1.95;47.22;98733.34;8250809;28;20238;-77
2021/12/21 07:55:28;;;;;;;66.20;42.40;;;;;;;2.50;47.11;98727.47;8250579;28;20238;-77
2021/12/21 07:59:32;;;;;;;54.00;36.53;;;;;;;5.61;40.27;98728.19;8250625;28;20245;-77
2021/12/21 08:03:35;;;;;;;26.47;17.53;;;;;;;6.74;37.60;98724.88;8250252;28;20543;-77
2021/12/21 08:07:47;;;;;;;44.73;27.30;;;;;;;7.61;36.08;98730.16;8250223;28;20238;-78
2021/12/21 08:16:11;;;;;;;44.10;27.27;;;;;;;4.72;40.84;98735.09;8250231;28;20241;-77
2021/12/21 08:20:14;;;;;;;49.30;39.50;;;;;;;3.84;42.84;98737.38;8242346;28;20230;-77
2021/12/21 08:24:19;;;;;;;18.87;14.33;;;;;;;3.67;44.79;98740.88;8249966;28;20249;-77
2021/12/21 08:28:22;;;;;;;14.93;11.67;;;;;;;3.52;45.28;98739.25;8250219;28;20257;-77
2021/12/21 08:32:25;;;;;;;15.80;10.67;;;;;;;3.37;45.99;98735.88;8249970;28;20432;-77
2021/12/21 08:36:28;;;;;;;15.73;8.50;;;;;;;3.19;46.69;98731.66;8250084;28;20567;-77
2021/12/21 08:40:39;;;;;;;12.47;8.10;;;;;;;3.12;47.19;98730.81;8249876;28;20537;-77
2021/12/21 08:44:44;;;;;;;8.63;7.03;;;;;;;2.98;48.58;98735.13;8249671;28;20238;-77
2021/12/21 08:48:47;;;;;;;12.73;7.10;;;;;;;3.05;48.62;98729.13;8255608;28;20226;-77
2021/12/21 08:52:50;;;;;;;13.33;8.80;;;;;;;3.17;49.14;98726.53;8256065;28;20558;-77
2021/12/21 08:56:54;;;;;;;41.40;35.07;;;;;;;3.12;49.82;98734.25;8256212;28;20293;-77
2021/12/21 09:00:57;;;;;;;16.87;12.57;;;;;;;3.22;49.71;98729.06;8256038;28;20238;-77
2021/12/21 09:05:06;;;;;;;11.10;7.57;;;;;;;3.05;50.58;98729.13;8255201;28;20242;-77
2021/12/21 09:09:09;;;;;;;17.20;8.53;;;;;;;3.12;50.00;98731.69;8255409;28;20408;-77
2021/12/21 09:13:13;;;;;;;19.80;10.50;;;;;;;3.27;50.37;98732.47;8251560;28;20226;-78
2021/12/21 09:17:21;;;;;;;48.17;31.57;;;;;;;3.42;50.22;98729.88;8253527;28;20233;-77
2021/12/21 09:21:24;;;;;;;36.43;24.90;;;;;;;3.34;50.75;98729.06;8254298;28;20548;-76
2021/12/21 09:25:28;;;;;;;17.00;9.30;;;;;;;3.47;50.79;98735.84;8249662;28;20233;-76
2021/12/21 09:29:35;;;;;;;18.17;10.67;;;;;;;3.53;50.62;98746.06;8251650;28;20244;-78
2021/12/21 09:33:38;;;;;;;19.53;11.07;;;;;;;3.33;50.51;98745.25;8254190;28;20242;-78
2021/12/21 09:37:41;;;;;;;28.47;19.37;;;;;;;2.86;51.96;98743.66;8253765;28;20420;-78
2021/12/21 09:41:44;;;;;;;19.67;9.60;;;;;;;2.85;52.96;98740.22;8253003;28;20237;-78
2021/12/21 09:45:49;;;;;;;16.23;9.03;;;;;;;3.19;52.66;98745.31;8252902;28;20414;-78
2021/12/21 09:49:52;;;;;;;11.57;7.47;;;;;;;3.41;52.09;98748.66;8252845;28;20533;-78
2021/12/21 09:53:57;;;;;;;13.47;7.23;;;;;;;3.59;51.88;98745.19;8253206;28;20234;-78
2021/12/21 09:58:00;;;;;;;13.47;7.13;;;;;;;3.66;52.31;98741.75;8252845;28;20233;-78
2021/12/21 10:02:04;;;;;;;13.37;7.33;;;;;;;3.79;52.55;98744.25;8243985;28;20238;-78
2021/12/21 10:06:10;;;;;;;11.73;6.87;;;;;;;3.90;53.50;98745.03;8246812;28;20234;-77
2021/12/21 10:10:16;;;;;;;10.40;6.20;;;;;;;4.07;52.16;98750.94;8245974;28;20236;-77
2021/12/21 10:14:20;;;;;;;15.43;6.97;;;;;;;4.18;51.32;98752.59;8253249;28;20226;-78
2021/12/21 10:18:25;;;;;;;8.70;6.80;;;;;;;4.34;51.41;98750.78;8253169;28;20238;-77
2021/12/21 10:22:28;;;;;;;12.50;7.50;;;;;;;7.77;72.88;98753.91;8253217;28;20419;-69
2021/12/21 10:26:31;;;;;;;12.17;6.10;;;;;;;9.02;52.26;98748.50;8253053;28;20257;-69
2021/12/21 10:30:34;;;;;;;12.53;7.20;;;;;;;8.51;43.48;98747.16;8253407;28;20238;-76
2021/12/21 10:34:39;;;;;;;10.40;6.70;;;;;;;6.87;45.23;98743.53;8252647;28;20545;-76
2021/12/21 10:38:48;;;;;;;12.23;7.33;;;;;;;6.26;46.37;98743.63;8251526;28;20238;-76
2021/12/21 10:42:54;;;;;;;10.67;7.17;;;;;;;6.33;46.79;98739.25;8252703;28;20525;-77
2021/12/21 10:46:57;;;;;;;10.33;7.73;;;;;;;6.24;47.05;98733.38;8252251;28;20234;-77
2021/12/21 10:51:15;;;;;;;9.73;6.80;;;;;;;6.13;47.29;98735.25;8252405;28;20241;-76
2021/12/21 10:55:18;;;;;;;10.37;7.00;;;;;;;6.17;46.84;98720.63;8251834;28;20226;-75
2021/12/21 10:59:29;;;;;;;11.47;7.20;;;;;;;6.00;48.01;98715.75;8252298;28;20494;-75
2021/12/21 11:03:36;;;;;;;12.17;6.60;;;;;;;5.94;48.37;98713.19;8250395;28;20254;-75
2021/12/21 11:07:45;;;;;;;10.17;6.80;;;;;;;6.14;48.53;98713.81;8251012;28;20245;-75
2021/12/21 11:11:53;;;;;;;10.20;6.43;;;;;;;5.57;49.50;98711.13;8251881;28;20518;-75
2021/12/21 11:15:57;;;;;;;11.93;7.73;;;;;;;6.02;48.32;98698.56;8251803;28;20238;-75
2021/12/21 11:20:00;;;;;;;10.03;6.33;;;;;;;5.93;47.17;98691.78;8251614;28;20541;-75
2021/12/21 11:24:07;;;;;;;11.03;6.90;;;;;;;6.16;47.71;98698.34;8251531;28;20261;-75
2021/12/21 11:28:14;;;;;;;13.77;7.93;;;;;;;5.49;47.86;98695.78;8251533;28;20595;-75
2021/12/21 11:32:17;;;;;;;10.27;5.73;;;;;;;5.67;48.06;98687.88;8251059;28;20234;-75
2021/12/21 11:40:44;;;;;;;9.73;6.20;;;;;;;5.55;49.27;98680.28;8250998;28;20237;-75
2021/12/21 11:44:52;;;;;;;8.57;6.57;;;;;;;5.74;49.17;98677.50;8251304;28;20233;-75
2021/12/21 11:49:01;;;;;;;10.87;6.47;;;;;;;5.98;48.58;98668.63;8251114;28;20421;-75
2021/12/21 11:53:06;;;;;;;10.17;6.77;;;;;;;6.01;48.83;98661.69;8250915;28;20349;-75
2021/12/21 11:57:10;;;;;;;9.93;6.43;;;;;;;5.58;49.63;98653.69;8250920;28;20230;-75
2021/12/21 12:01:16;;;;;;;9.00;6.60;;;;;;;5.93;49.21;98652.38;8242596;28;20241;-75
2021/12/21 12:05:22;;;;;;;12.00;6.67;;;;;;;5.99;49.04;98655.72;8250164;28;20254;-75
2021/12/21 12:09:26;;;;;;;11.20;6.60;;;;;;;5.72;49.66;98658.69;8250307;28;20242;-75
2021/12/21 12:13:33;;;;;;;9.40;6.23;;;;;;;6.00;49.46;98649.72;8250357;28;20571;-75
2021/12/21 12:17:46;;;;;;;13.20;7.07;;;;;;;5.99;49.18;98648.00;8250571;28;20230;-75
2021/12/21 12:21:57;;;;;;;13.23;6.57;;;;;;;5.90;49.37;98647.28;8250152;28;20418;-75
2021/12/21 12:26:00;;;;;;;10.57;6.30;;;;;;;5.85;50.13;98644.78;8249704;28;20244;-75
2021/12/21 12:30:14;;;;;;;11.87;6.70;;;;;;;5.99;49.78;98635.16;8249454;28;20241;-74
2021/12/21 12:34:23;;;;;;;11.63;6.30;;;;;;;5.40;50.09;98642.78;8249329;28;20234;-74
2021/12/21 12:38:26;;;;;;;7.80;5.67;;;;;;;5.73;49.79;98642.38;8249905;28;20249;-74
2021/12/21 12:42:32;;;;;;;11.97;6.57;;;;;;;5.88;49.83;98630.16;8249668;28;20241;-74
2021/12/21 12:46:36;;;;;;;9.27;6.27;;;;;;;6.23;49.03;98633.09;8249308;28;20427;-74
2021/12/21 12:50:40;;;;;;;9.43;5.20;;;;;;;6.31;48.89;98630.41;8248955;28;20230;-75
2021/12/21 12:54:48;;;;;;;10.37;6.60;;;;;;;6.32;48.95;98634.66;8249121;28;20257;-74
2021/12/21 12:58:53;;;;;;;9.87;6.93;;;;;;;6.23;49.41;98635.66;8248735;28;20265;-74
2021/12/21 13:02:59;;;;;;;9.83;6.67;;;;;;;6.05;50.04;98635.09;8248483;28;20238;-74
2021/12/21 13:07:03;;;;;;;11.37;6.53;;;;;;;5.98;50.58;98637.78;8246166;28;20254;-74
2021/12/21 13:11:07;;;;;;;10.83;6.23;;;;;;;6.15;50.41;98629.78;8248615;28;20239;-74
2021/12/21 13:15:10;;;;;;;9.87;6.10;;;;;;;5.93;50.88;98630.09;8248649;28;20233;-74
2021/12/21 13:19:15;;;;;;;9.03;6.60;;;;;;;6.01;50.46;98640.28;8247885;28;20230;-75
2021/12/21 13:23:20;;;;;;;11.83;6.83;;;;;;;6.06;50.19;98634.19;8248271;28;20226;-75
2021/12/21 13:27:25;;;;;;;9.90;6.07;;;;;;;6.38;49.83;98629.44;8246325;28;20541;-74
2021/12/21 13:31:27;;;;;;;11.10;5.77;;;;;;;6.38;49.26;98627.69;8249533;28;20226;-74
2021/12/21 13:35:32;;;;;;;7.97;5.70;;;;;;;6.20;49.46;98628.81;8255272;28;20234;-74
2021/12/21 13:39:37;;;;;;;7.90;6.13;;;;;;;6.20;50.07;98626.25;8255234;28;20234;-74
2021/12/21 13:43:53;;;;;;;8.80;5.97;;;;;;;6.28;49.98;98628.69;8254966;28;20249;-75
2021/12/21 13:47:56;;;;;;;8.40;5.33;;;;;;;6.40;49.20;98627.69;8254801;28;20541;-74
2021/12/21 13:52:01;;;;;;;8.63;5.37;;;;;;;6.33;49.04;98628.66;8254945;28;20233;-74
2021/12/21 13:56:04;;;;;;;9.13;5.30;;;;;;;6.33;49.21;98628.66;8254318;28;20258;-74
2021/12/21 14:00:09;;;;;;;8.33;5.87;;;;;;;6.25;49.24;98621.06;8253916;28;20316;-75
2021/12/21 14:04:14;;;;;;;7.73;5.40;;;;;;;6.64;48.11;98610.94;8253126;28;20544;-74
2021/12/21 14:08:19;;;;;;;11.10;5.50;;;;;;;6.73;47.98;98617.66;8253919;28;20238;-75
2021/12/21 14:12:22;;;;;;;10.77;7.50;;;;;;;6.57;49.00;98620.50;8253947;28;20240;-74
2021/12/21 14:16:28;;;;;;;9.53;6.57;;;;;;;6.79;48.86;98626.09;8253618;28;20575;-75
2021/12/21 14:20:31;;;;;;;11.47;7.23;;;;;;;6.80;49.16;98621.81;8253382;28;20254;-75
2021/12/21 14:24:36;;;;;;;9.20;6.83;;;;;;;6.72;49.44;98626.22;8251425;28;20238;-74
2021/12/21 14:28:50;;;;;;;10.53;7.30;;;;;;;6.66;48.94;98627.19;8251463;28;20254;-74
2021/12/21 14:33:08;;;;;;;9.27;6.30;;;;;;;6.75;49.00;98627.03;8251104;28;20242;-74
2021/12/21 14:37:13;;;;;;;10.77;6.73;;;;;;;6.80;48.84;98637.25;8249380;28;20233;-75
2021/12/21 14:41:22;;;;;;;14.33;7.37;;;;;;;6.79;48.51;98632.97;8252860;28;20234;-74
2021/12/21 14:45:27;;;;;;;10.33;6.70;;;;;;;6.75;48.90;98637.34;8251083;28;20238;-74
2021/12/21 14:49:32;;;;;;;8.57;6.57;;;;;;;6.51;49.05;98638.63;8252317;28;20249;-74
2021/12/21 14:53:45;;;;;;;9.10;6.50;;;;;;;6.28;49.52;98630.44;8250657;28;20241;-74
2021/12/21 14:57:51;;;;;;;8.30;6.73;;;;;;;6.21;50.11;98629.69;8251640;28;20231;-74
2021/12/21 15:02:02;;;;;;;7.87;6.30;;;;;;;6.10;49.96;98636.72;8251811;28;20419;-73
2021/12/21 15:06:06;;;;;;;10.07;6.70;;;;;;;6.03;49.99;98641.94;8251817;28;20364;-74
2021/12/21 15:10:11;;;;;;;9.33;7.10;;;;;;;5.86;50.29;98638.75;8252073;28;20233;-73
2021/12/21 15:14:16;;;;;;;10.90;4.90;;;;;;;8.07;80.03;98641.47;8251549;28;20234;-72
2021/12/21 15:18:20;;;;;;;10.67;6.37;;;;;;;9.09;56.94;98641.53;8251263;28;20222;-80
2021/12/21 15:22:23;;;;;;;11.03;7.70;;;;;;;7.12;48.61;98638.34;8251404;28;20256;-79
2021/12/21 15:26:26;;;;;;;12.23;7.70;;;;;;;6.49;49.14;98636.94;8250775;28;20238;-79
2021/12/21 15:30:31;;;;;;;11.67;8.37;;;;;;;6.18;49.86;98640.88;8251051;28;20404;-78
2021/12/21 15:34:34;;;;;;;25.27;14.03;;;;;;;5.99;49.74;98647.16;8250961;28;20230;-79
2021/12/21 15:38:37;;;;;;;19.87;13.30;;;;;;;5.88;49.62;98642.16;8250888;28;20256;-80
2021/12/21 15:42:40;;;;;;;12.13;8.73;;;;;;;5.75;49.81;98638.06;8250836;28;20234;-80
2021/12/21 15:46:49;;;;;;;13.03;10.67;;;;;;;5.62;49.98;98645.94;8250551;28;20234;-81
2021/12/21 15:50:52;;;;;;;25.10;19.83;;;;;;;5.47;49.90;98641.00;8250660;28;20234;-79
2021/12/21 15:54:55;;;;;;;46.77;31.97;;;;;;;5.51;50.11;98640.09;8250220;28;20238;-79
2021/12/21 15:58:58;;;;;;;56.27;40.57;;;;;;;5.37;50.45;98640.28;8250522;28;20234;-80
2021/12/21 16:03:03;;;;;;;22.13;19.17;;;;;;;5.33;50.09;98643.75;8250364;28;20246;-80
2021/12/21 16:07:06;;;;;;;14.47;11.70;;;;;;;5.24;50.28;98647.28;8249823;28;20301;-75
2021/12/21 16:11:10;;;;;;;12.97;10.03;;;;;;;5.20;50.40;98655.06;8250196;28;20240;-75
2021/12/21 16:15:14;;;;;;;12.30;9.67;;;;;;;5.16;50.51;98648.22;8256683;28;20256;-75
2021/12/21 16:19:18;;;;;;;14.40;11.57;;;;;;;5.07;50.95;98651.78;8247206;28;20234;-78
2021/12/21 16:23:21;;;;;;;32.77;23.97;;;;;;;4.95;50.96;98651.88;8247816;28;20241;-77
2021/12/21 16:27:24;;;;;;;35.77;25.80;;;;;;;4.86;50.92;98657.97;8216235;28;20247;-79
2021/12/21 16:31:28;;;;;;;21.40;15.57;;;;;;;4.67;51.27;98654.75;8218319;28;20242;-79
2021/12/21 16:35:32;;;;;;;14.97;11.10;;;;;;;4.69;51.13;98653.03;8249311;28;20695;-79
2021/12/21 16:39:36;;;;;;;10.50;7.60;;;;;;;4.64;51.07;98647.06;8249527;28;20230;-79
2021/12/21 16:43:39;;;;;;;21.93;16.13;;;;;;;4.52;51.82;98653.16;8249655;28;20261;-80
2021/12/21 16:47:43;;;;;;;21.63;14.70;;;;;;;4.57;52.14;98654.00;8249182;28;20234;-80
2021/12/21 16:51:47;;;;;;;18.30;15.57;;;;;;;4.61;52.34;98644.56;8249962;28;20237;-79
2021/12/21 16:55:50;;;;;;;21.90;16.67;;;;;;;4.69;51.73;98648.72;8249301;28;20241;-78
2021/12/21 16:59:53;;;;;;;19.00;13.87;;;;;;;4.67;51.73;98647.06;8249444;28;20242;-77
2021/12/21 17:03:56;;;;;;;17.37;13.87;;;;;;;4.56;51.51;98649.72;8249040;28;20444;-76
2021/12/21 17:08:02;;;;;;;19.60;14.93;;;;;;;4.59;51.20;98652.25;8251370;28;20242;-78
2021/12/21 17:12:06;;;;;;;22.13;15.70;;;;;;;4.60;51.35;98661.63;8255122;28;20245;-77
2021/12/21 17:16:09;;;;;;;28.53;19.83;;;;;;;4.42;51.15;98652.41;8255192;28;20563;-77
2021/12/21 17:20:13;;;;;;;27.90;19.83;;;;;;;4.46;50.88;98659.22;8254644;28;20233;-77
2021/12/21 17:24:18;;;;;;;24.57;17.60;;;;;;;4.42;50.99;98654.13;8254981;28;20414;-77
2021/12/21 17:28:21;;;;;;;26.37;16.77;;;;;;;4.40;51.11;98656.69;8254993;28;20242;-79
2021/12/21 17:32:23;;;;;;;23.13;17.47;;;;;;;4.28;51.21;98660.22;8254957;28;20431;-77
2021/12/21 17:36:28;;;;;;;23.93;17.47;;;;;;;4.35;51.21;98663.56;8255032;28;20249;-75
2021/12/21 17:40:32;;;;;;;21.07;16.47;;;;;;;4.27;51.29;98667.91;8254866;28;20566;-77
2021/12/21 17:44:35;;;;;;;21.30;15.57;;;;;;;4.14;51.53;98674.00;8254263;28;20373;-76
2021/12/21 17:48:38;;;;;;;19.47;14.27;;;;;;;4.29;51.47;98679.00;8254694;28;20241;-76
2021/12/21 17:52:43;;;;;;;22.63;14.07;;;;;;;4.08;51.91;98686.00;8254636;28;20252;-77
2021/12/21 17:56:48;;;;;;;17.57;11.73;;;;;;;4.07;51.83;98689.44;8254332;28;20233;-76
2021/12/21 18:00:51;;;;;;;16.37;12.37;;;;;;;4.02;51.64;98685.19;8254231;28;20234;-75
2021/12/21 18:04:54;;;;;;;17.07;11.67;;;;;;;3.96;51.84;98696.34;8253556;28;20245;-75
2021/12/21 18:08:57;;;;;;;15.47;10.73;;;;;;;3.97;51.51;98697.19;8254237;28;20234;-76
2021/12/21 18:13:02;;;;;;;13.83;9.53;;;;;;;3.99;51.82;98692.91;8253973;28;20238;-76
2021/12/21 18:17:05;;;;;;;10.80;9.53;;;;;;;3.92;51.50;98694.63;8253545;28;20417;-76
2021/12/21 18:21:08;;;;;;;11.63;8.67;;;;;;;3.98;50.99;98696.31;8253824;28;20288;-76
2021/12/21 18:25:12;;;;;;;12.03;8.63;;;;;;;3.83;51.11;98697.28;8253149;28;20230;-76
2021/12/21 18:29:17;;;;;;;14.03;8.77;;;;;;;3.89;50.96;98690.38;8252966;28;20237;-77
2021/12/21 18:33:21;;;;;;;19.10;15.63;;;;;;;3.85;51.18;98706.63;8253205;28;20234;-78
2021/12/21 18:37:25;;;;;;;21.27;15.70;;;;;;;3.82;50.89;98703.25;8252916;28;20245;-78
2021/12/21 18:41:28;;;;;;;23.93;17.77;;;;;;;3.72;50.50;98703.28;8251276;28;20268;-75
2021/12/21 18:45:33;;;;;;;21.83;17.37;;;;;;;3.73;50.51;98693.88;8251526;28;20469;-76
2021/12/21 18:49:37;;;;;;;21.93;17.33;;;;;;;3.84;50.71;98688.72;8249896;28;20241;-77
2021/12/21 18:53:40;;;;;;;22.63;16.70;;;;;;;3.75;50.53;98694.75;8251371;28;20228;-77
2021/12/21 18:57:43;;;;;;;22.10;17.37;;;;;;;3.58;50.82;98702.50;8251578;28;20226;-77
2021/12/21 19:01:47;;;;;;;26.33;19.07;;;;;;;3.57;51.10;98700.78;8251013;28;20240;-77
2021/12/21 19:05:50;;;;;;;23.07;17.60;;;;;;;3.55;51.47;98711.91;8251033;28;20241;-77
2021/12/21 19:09:53;;;;;;;21.13;17.27;;;;;;;3.66;50.65;98702.47;8251066;28;20238;-77
2021/12/21 19:13:56;;;;;;;27.40;18.77;;;;;;;3.58;50.83;98697.38;8251113;28;20242;-76
2021/12/21 19:18:01;;;;;;;30.10;21.13;;;;;;;3.39;51.24;98695.75;8251979;28;20411;-77
2021/12/21 19:22:04;;;;;;;37.67;19.50;;;;;;;6.76;65.59;98702.53;8251772;28;20567;-77
2021/12/21 19:26:07;;;;;;;23.27;17.83;;;;;;;4.75;49.69;98691.44;8251696;28;20238;-76
2021/12/21 19:30:15;;;;;;;25.53;20.23;;;;;;;4.42;49.59;98702.84;8251090;28;20234;-78
2021/12/21 19:34:20;;;;;;;28.37;22.57;;;;;;;4.12;49.19;98712.47;8251246;28;20457;-78
2021/12/21 19:38:23;;;;;;;32.20;24.17;;;;;;;3.81;49.76;98722.91;8250550;28;20240;-78
2021/12/21 19:42:26;;;;;;;33.10;25.20;;;;;;;3.74;49.73;98718.66;8250963;28;20240;-78
2021/12/21 19:46:29;;;;;;;32.13;25.63;;;;;;;3.75;49.24;98722.06;8251124;28;20242;-78